createdAt,value
2022-11-13T00:00:38.249Z,6.33
2022-11-13T00:08:30.509Z,6.23
2022-11-13T00:11:05.953Z,6.11
2022-11-13T00:13:33.251Z,6.08
2022-11-13T00:16:03.501Z,5.73
2022-11-13T00:18:31.773Z,5.70
2022-11-13T00:20:58.944Z,5.57
2022-11-13T00:23:25.467Z,5.63
2022-11-13T00:25:52.119Z,5.55
2022-11-13T00:28:18.693Z,5.44
2022-11-13T00:30:45.400Z,5.90
2022-11-13T00:33:12.088Z,5.56
2022-11-13T00:35:38.733Z,5.52
2022-11-13T00:38:05.342Z,5.74
2022-11-13T00:40:32.000Z,5.76
2022-11-13T00:42:58.598Z,5.86
2022-11-13T00:45:25.195Z,5.49
2022-11-13T00:50:23.622Z,5.37
2022-11-13T00:52:50.251Z,5.29
2022-11-13T00:57:48.246Z,5.34
2022-11-13T01:00:14.932Z,5.40
2022-11-13T01:02:41.568Z,5.72
2022-11-13T01:05:08.565Z,5.38
2022-11-13T01:07:37.572Z,5.36
2022-11-13T01:10:07.941Z,5.04
2022-11-13T01:12:34.681Z,5.13
2022-11-13T01:15:01.470Z,4.96
2022-11-13T01:17:28.089Z,5.19
2022-11-13T01:19:54.739Z,4.94
2022-11-13T01:22:21.510Z,4.83
2022-11-13T01:24:48.125Z,4.97
2022-11-13T01:27:16.119Z,4.78
2022-11-13T01:29:43.027Z,4.86
2022-11-13T01:32:09.902Z,4.74
2022-11-13T01:34:36.596Z,5.08
2022-11-13T01:37:03.718Z,4.82
2022-11-13T01:39:30.348Z,4.98
2022-11-13T01:41:57.201Z,5.03
2022-11-13T01:44:23.793Z,5.23
2022-11-13T01:46:53.459Z,4.78
2022-11-13T01:49:31.843Z,4.71
2022-11-13T01:52:03.468Z,5.21
2022-11-13T01:54:34.003Z,4.85
2022-11-13T01:57:02.847Z,4.93
2022-11-13T01:59:34.643Z,4.97
2022-11-13T02:02:02.222Z,5.00
2022-11-13T02:04:29.792Z,5.26
2022-11-13T02:07:12.821Z,4.81
2022-11-13T02:09:46.324Z,4.91
2022-11-13T02:12:17.030Z,5.17
2022-11-13T02:14:52.167Z,4.68
2022-11-13T02:17:24.428Z,4.50
2022-11-13T02:22:57.161Z,5.05
2022-11-13T02:25:25.795Z,4.91
2022-11-13T02:27:52.385Z,4.87
2022-11-13T02:30:26.557Z,4.81
2022-11-13T02:32:55.843Z,4.65
2022-11-13T02:35:35.217Z,5.04
2022-11-13T02:38:04.615Z,4.82
2022-11-13T02:40:33.036Z,4.67
2022-11-13T02:42:59.709Z,4.79
2022-11-13T02:45:26.332Z,4.81
2022-11-13T02:47:52.974Z,4.68
2022-11-13T02:50:19.519Z,4.88
2022-11-13T02:52:46.155Z,4.69
2022-11-13T02:55:12.984Z,4.77
2022-11-13T02:57:39.574Z,4.74
2022-11-13T03:00:10.668Z,4.97
2022-11-13T03:02:40.287Z,5.01
2022-11-13T03:05:12.344Z,4.92
2022-11-13T03:07:39.897Z,4.73
2022-11-13T03:10:07.101Z,4.72
2022-11-13T03:12:34.235Z,4.68
2022-11-13T03:15:01.152Z,4.67
2022-11-13T03:17:27.966Z,4.80
2022-11-13T03:19:54.541Z,4.52
2022-11-13T03:22:21.124Z,4.46
2022-11-13T03:24:47.727Z,4.57
2022-11-13T03:27:14.328Z,4.44
2022-11-13T03:29:40.926Z,4.59
2022-11-13T03:32:07.595Z,4.78
2022-11-13T03:34:34.272Z,4.74
2022-11-13T03:37:00.952Z,4.61
2022-11-13T03:39:27.565Z,4.45
2022-11-13T03:41:54.192Z,4.51
2022-11-13T03:44:20.841Z,4.73
2022-11-13T03:46:47.558Z,4.69
2022-11-13T03:51:46.027Z,4.56
2022-11-13T03:54:12.664Z,4.45
2022-11-13T03:56:39.322Z,4.50
2022-11-13T03:59:05.935Z,4.54
2022-11-13T04:01:32.595Z,4.59
2022-11-13T04:03:59.181Z,4.71
2022-11-13T04:06:25.819Z,4.51
2022-11-13T04:08:52.355Z,4.47
2022-11-13T04:11:18.931Z,4.53
2022-11-13T04:13:45.491Z,4.61
2022-11-13T04:16:12.077Z,4.49
2022-11-13T04:18:38.715Z,4.74
2022-11-13T04:21:05.935Z,4.69
2022-11-13T04:23:32.683Z,4.99
2022-11-13T04:25:59.262Z,5.05
2022-11-13T04:28:26.259Z,4.95
2022-11-13T04:30:54.439Z,5.03
2022-11-13T04:33:21.691Z,4.97
2022-11-13T04:35:48.742Z,4.86
2022-11-13T04:38:16.026Z,4.90
2022-11-13T04:40:42.996Z,4.91
2022-11-13T04:43:09.696Z,4.69
2022-11-13T04:45:37.030Z,4.73
2022-11-13T04:48:03.913Z,4.73
2022-11-13T04:50:30.710Z,4.74
2022-11-13T04:52:57.366Z,4.75
2022-11-13T04:55:23.992Z,4.78
2022-11-13T04:57:54.785Z,4.70
2022-11-13T05:00:21.542Z,4.75
2022-11-13T05:02:48.154Z,4.70
2022-11-13T05:05:14.831Z,4.80
2022-11-13T05:07:42.790Z,4.63
2022-11-13T05:10:09.971Z,4.52
2022-11-13T05:12:36.533Z,4.70
2022-11-13T05:15:04.096Z,4.78
2022-11-13T05:17:30.665Z,4.57
2022-11-13T05:22:35.567Z,4.78
2022-11-13T05:25:02.187Z,4.50
2022-11-13T05:27:28.774Z,4.42
2022-11-13T05:29:55.344Z,4.71
2022-11-13T05:32:21.943Z,4.47
2022-11-13T05:34:48.503Z,4.75
2022-11-13T05:37:15.233Z,4.80
2022-11-13T05:39:41.834Z,4.89
2022-11-13T05:42:08.473Z,4.87
2022-11-13T05:44:35.017Z,4.88
2022-11-13T05:49:32.858Z,4.63
2022-11-13T05:51:59.424Z,4.72
2022-11-13T05:54:26.048Z,4.87
2022-11-13T05:56:52.623Z,4.73
2022-11-13T05:59:19.201Z,4.77
2022-11-13T06:01:45.787Z,4.84
2022-11-13T06:04:12.447Z,4.92
2022-11-13T06:06:39.120Z,4.70
2022-11-13T06:09:06.747Z,4.78
2022-11-13T06:11:33.468Z,4.95
2022-11-13T06:14:00.864Z,4.81
2022-11-13T06:16:30.093Z,4.80
2022-11-13T06:18:59.078Z,4.68
2022-11-13T06:21:28.331Z,4.58
2022-11-13T06:23:56.602Z,4.56
2022-11-13T06:29:06.875Z,4.79
2022-11-13T06:31:36.061Z,4.53
2022-11-13T06:34:03.401Z,4.72
2022-11-13T06:36:33.243Z,4.61
2022-11-13T06:39:00.238Z,4.61
2022-11-13T06:41:30.068Z,4.58
2022-11-13T06:46:31.359Z,4.87
2022-11-13T06:48:58.743Z,4.66
2022-11-13T06:51:28.963Z,4.59
2022-11-13T06:53:57.072Z,4.64
2022-11-13T06:56:24.263Z,4.78
2022-11-13T06:58:50.964Z,4.61
2022-11-13T07:01:20.172Z,4.65
2022-11-13T07:03:47.092Z,4.71
2022-11-13T07:06:16.958Z,4.69
2022-11-13T07:08:44.464Z,4.85
2022-11-13T07:11:14.128Z,5.88
2022-11-13T07:13:40.958Z,5.75
2022-11-13T07:16:16.265Z,5.95
2022-11-13T07:18:49.067Z,6.07
2022-11-13T07:21:15.681Z,5.70
2022-11-13T07:23:43.767Z,5.52
2022-11-13T07:26:13.484Z,5.14
2022-11-13T07:28:40.153Z,4.94
2022-11-13T07:31:07.424Z,4.84
2022-11-13T07:33:34.423Z,4.88
2022-11-13T07:36:01.209Z,4.77
2022-11-13T07:38:28.301Z,4.84
2022-11-13T07:40:57.343Z,4.88
2022-11-13T07:43:24.002Z,5.03
2022-11-13T07:45:54.762Z,4.90
2022-11-13T07:48:22.413Z,4.97
2022-11-13T07:50:49.671Z,4.95
2022-11-13T07:53:16.899Z,5.03
2022-11-13T07:55:43.802Z,5.09
2022-11-13T07:58:10.522Z,4.96
2022-11-13T08:00:37.279Z,5.13
2022-11-13T08:03:08.648Z,4.84
2022-11-13T08:05:35.870Z,4.98
2022-11-13T08:10:33.757Z,5.00
2022-11-13T08:13:11.070Z,5.01
2022-11-13T08:15:38.104Z,5.09
2022-11-13T08:18:05.386Z,5.17
2022-11-13T08:20:32.710Z,4.98
2022-11-13T08:23:01.165Z,5.08
2022-11-13T08:25:29.174Z,5.06
2022-11-13T08:27:56.130Z,4.90
2022-11-13T08:30:24.608Z,4.78
2022-11-13T08:35:29.166Z,5.03
2022-11-13T08:38:01.721Z,4.92
2022-11-13T08:40:28.279Z,4.86
2022-11-13T08:43:00.253Z,4.82
2022-11-13T08:45:27.515Z,4.87
2022-11-13T08:47:54.208Z,4.84
2022-11-13T08:50:20.826Z,4.91
2022-11-13T08:52:47.445Z,4.87
2022-11-13T08:55:14.020Z,4.80
2022-11-13T08:57:40.615Z,4.73
2022-11-13T09:00:08.025Z,4.91
2022-11-13T09:02:34.599Z,4.87
2022-11-13T09:05:01.285Z,5.02
2022-11-13T09:07:27.949Z,5.09
2022-11-13T09:09:54.582Z,5.31
2022-11-13T09:12:21.634Z,5.05
2022-11-13T09:14:48.181Z,5.23
2022-11-13T09:17:14.917Z,5.11
2022-11-13T09:19:41.454Z,5.18
2022-11-13T09:22:08.550Z,5.17
2022-11-13T09:24:35.156Z,5.13
2022-11-13T09:27:01.964Z,5.07
2022-11-13T09:29:28.856Z,5.08
2022-11-13T09:31:56.173Z,5.05
2022-11-13T09:34:23.065Z,5.31
2022-11-13T09:36:49.666Z,4.86
2022-11-13T09:39:17.266Z,4.96
2022-11-13T09:41:57.681Z,4.86
2022-11-13T09:44:43.582Z,4.85
2022-11-13T09:47:18.788Z,5.11
2022-11-13T09:50:02.312Z,5.30
2022-11-13T09:52:38.351Z,5.23
2022-11-13T09:55:05.785Z,5.42
2022-11-13T09:57:38.540Z,5.46
2022-11-13T10:03:11.460Z,5.44
2022-11-13T10:05:56.490Z,5.55
2022-11-13T10:08:49.231Z,5.52
2022-11-13T10:11:39.628Z,5.57
2022-11-13T10:14:19.904Z,5.50
2022-11-13T10:17:01.802Z,5.82
2022-11-13T10:19:36.481Z,5.70
2022-11-13T10:22:34.858Z,5.81
2022-11-13T10:25:20.545Z,5.83
2022-11-13T10:28:43.593Z,5.73
2022-11-13T10:31:04.338Z,5.98
2022-11-13T10:33:31.053Z,5.67
2022-11-13T10:36:28.809Z,5.83
2022-11-13T10:39:03.497Z,5.84
2022-11-13T10:41:30.304Z,5.90
2022-11-13T10:44:17.926Z,5.95
2022-11-13T10:46:44.554Z,5.82
2022-11-13T10:49:19.408Z,5.93
2022-11-13T10:51:56.601Z,5.93
2022-11-13T10:54:26.749Z,5.91
2022-11-13T10:57:30.331Z,6.05
2022-11-13T10:59:56.922Z,6.02
2022-11-13T11:02:26.722Z,6.10
2022-11-13T11:05:16.706Z,6.03
2022-11-13T11:07:43.328Z,6.10
2022-11-13T11:10:59.569Z,6.18
2022-11-13T11:13:28.007Z,6.25
2022-11-13T11:15:59.500Z,6.42
2022-11-13T11:18:34.116Z,6.55
2022-11-13T11:21:07.766Z,6.59
2022-11-13T11:23:37.264Z,6.79
2022-11-13T11:26:12.762Z,6.67
2022-11-13T11:28:52.085Z,6.75
2022-11-13T11:31:45.478Z,6.53
2022-11-13T11:34:31.812Z,6.44
2022-11-13T11:39:58.024Z,6.38
2022-11-13T11:42:45.514Z,6.52
2022-11-13T11:45:26.430Z,6.71
2022-11-13T11:47:54.363Z,6.95
2022-11-13T11:50:35.345Z,7.35
2022-11-13T11:53:25.711Z,7.69
2022-11-13T11:56:07.241Z,8.04
2022-11-13T11:58:39.341Z,8.27
2022-11-13T12:01:17.574Z,8.37
2022-11-13T12:03:59.349Z,8.51
2022-11-13T12:06:35.386Z,8.74
2022-11-13T12:09:17.472Z,9.08
2022-11-13T12:12:06.442Z,9.32
2022-11-13T12:14:39.080Z,9.32
2022-11-13T12:17:43.796Z,9.25
2022-11-13T12:20:26.259Z,9.68
2022-11-13T12:23:17.730Z,9.66
2022-11-13T12:25:56.693Z,9.75
2022-11-13T12:28:25.958Z,9.60
2022-11-13T12:30:58.066Z,9.70
2022-11-13T12:33:47.521Z,9.69
2022-11-13T12:36:14.756Z,9.80
2022-11-13T12:39:18.707Z,9.95
2022-11-13T12:41:53.058Z,10.04
2022-11-13T12:44:27.505Z,10.16
2022-11-13T12:46:56.106Z,10.04
2022-11-13T12:49:22.724Z,10.28
2022-11-13T12:52:01.299Z,10.31
2022-11-13T12:54:37.625Z,10.40
2022-11-13T12:57:12.844Z,10.24
2022-11-13T12:59:48.073Z,10.26
2022-11-13T13:02:14.633Z,10.41
2022-11-13T13:05:07.682Z,10.36
2022-11-13T13:07:39.852Z,10.33
2022-11-13T13:10:09.132Z,10.51
2022-11-13T13:12:38.523Z,10.38
2022-11-13T13:15:29.042Z,10.24
2022-11-13T13:18:11.835Z,10.22
2022-11-13T13:20:46.379Z,10.10
2022-11-13T13:23:14.414Z,10.35
2022-11-13T13:25:41.138Z,10.20
2022-11-13T13:28:07.712Z,10.33
2022-11-13T13:30:53.842Z,10.08
2022-11-13T13:33:42.803Z,10.07
2022-11-13T13:36:21.770Z,10.09
2022-11-13T13:39:01.928Z,10.05
2022-11-13T13:41:34.910Z,10.17
2022-11-13T13:44:26.228Z,10.22
2022-11-13T13:46:53.147Z,10.18
2022-11-13T13:49:23.464Z,10.22
2022-11-13T13:51:52.748Z,10.27
2022-11-13T13:54:26.282Z,10.12
2022-11-13T13:56:56.061Z,10.15
2022-11-13T13:59:35.406Z,10.24
2022-11-13T14:02:13.750Z,10.13
2022-11-13T14:04:46.626Z,10.17
2022-11-13T14:07:28.847Z,10.07
2022-11-13T14:10:14.082Z,10.14
2022-11-13T14:12:42.978Z,10.13
2022-11-13T14:15:21.567Z,10.24
2022-11-13T14:17:48.354Z,10.12
2022-11-13T14:20:15.583Z,10.05
2022-11-13T14:22:44.393Z,10.10
2022-11-13T14:25:28.382Z,10.17
2022-11-13T14:27:55.055Z,10.12
2022-11-13T14:30:25.668Z,10.18
2022-11-13T14:32:52.799Z,10.05
2022-11-13T14:35:22.530Z,10.02
2022-11-13T14:37:50.420Z,10.02
2022-11-13T14:40:23.834Z,9.95
2022-11-13T14:42:59.714Z,10.00
2022-11-13T14:45:29.117Z,10.09
2022-11-13T14:48:18.804Z,10.11
2022-11-13T14:51:00.484Z,10.12
2022-11-13T14:53:30.226Z,10.10
2022-11-13T14:56:02.432Z,9.88
2022-11-13T14:58:31.293Z,9.74
2022-11-13T15:00:59.259Z,9.74
2022-11-13T15:03:27.877Z,9.54
2022-11-13T15:05:54.952Z,9.44
2022-11-13T15:08:21.572Z,9.39
2022-11-13T15:13:19.874Z,9.20
2022-11-13T15:15:46.548Z,9.15
2022-11-13T15:18:17.344Z,9.26
2022-11-13T15:20:45.436Z,9.39
2022-11-13T15:23:15.597Z,9.54
2022-11-13T15:25:42.737Z,9.57
2022-11-13T15:28:09.394Z,9.49
2022-11-13T15:30:36.376Z,9.54
2022-11-13T15:33:06.425Z,9.50
2022-11-13T15:35:32.981Z,9.50
2022-11-13T15:37:59.521Z,9.79
2022-11-13T15:40:26.112Z,9.20
2022-11-13T15:42:52.731Z,9.10
2022-11-13T15:45:19.288Z,8.82
2022-11-13T15:47:45.973Z,8.74
2022-11-13T15:50:14.845Z,8.78
2022-11-13T15:52:48.652Z,8.55
2022-11-13T15:55:24.847Z,8.45
2022-11-13T15:57:51.840Z,8.25
2022-11-13T16:00:27.019Z,8.07
2022-11-13T16:02:57.723Z,8.28
2022-11-13T16:05:26.131Z,8.07
2022-11-13T16:07:53.719Z,8.08
2022-11-13T16:12:53.797Z,7.76
2022-11-13T16:15:20.556Z,7.65
2022-11-13T16:17:50.828Z,7.68
2022-11-13T16:20:18.056Z,7.86
2022-11-13T16:22:46.406Z,7.96
2022-11-13T16:25:15.639Z,7.86
2022-11-13T16:27:42.433Z,7.86
2022-11-13T16:30:20.827Z,7.71
2022-11-13T16:32:48.057Z,7.86
2022-11-13T16:35:19.377Z,7.52
2022-11-13T16:37:46.068Z,7.33
2022-11-13T16:40:21.260Z,7.41
2022-11-13T16:42:48.319Z,7.32
2022-11-13T16:50:22.772Z,7.14
2022-11-13T16:52:50.714Z,7.06
2022-11-13T16:55:17.600Z,7.01
2022-11-13T16:57:44.285Z,6.94
2022-11-13T17:00:14.437Z,7.01
2022-11-13T17:02:41.184Z,6.96
2022-11-13T17:05:12.719Z,6.80
2022-11-13T17:07:39.416Z,6.82
2022-11-13T17:12:54.324Z,6.61
2022-11-13T17:15:21.554Z,6.62
2022-11-13T17:17:48.498Z,6.61
2022-11-13T17:20:18.360Z,6.59
2022-11-13T17:25:23.436Z,6.56
2022-11-13T17:27:50.045Z,6.56
2022-11-13T17:30:17.000Z,6.72
2022-11-13T17:32:43.703Z,6.58
2022-11-13T17:35:12.859Z,6.47
2022-11-13T17:37:39.914Z,6.55
2022-11-13T17:40:07.739Z,6.86
2022-11-13T17:42:34.381Z,6.97
2022-11-13T17:45:00.971Z,6.93
2022-11-13T17:47:27.594Z,6.97
2022-11-13T17:49:54.368Z,6.94
2022-11-13T17:52:20.994Z,6.96
2022-11-13T17:54:47.617Z,6.95
2022-11-13T17:57:14.631Z,6.91
2022-11-13T17:59:41.578Z,6.94
2022-11-13T18:02:11.595Z,6.81
2022-11-13T18:04:38.210Z,6.74
2022-11-13T18:07:04.940Z,6.75
2022-11-13T18:09:31.661Z,6.70
2022-11-13T18:11:58.285Z,6.63
2022-11-13T18:14:24.906Z,6.71
2022-11-13T18:16:51.555Z,6.72
2022-11-13T18:19:18.415Z,6.71
2022-11-13T18:21:45.188Z,6.74
2022-11-13T18:24:15.645Z,6.80
2022-11-13T18:26:43.035Z,6.93
2022-11-13T18:29:10.027Z,6.78
2022-11-13T18:31:36.794Z,6.73
2022-11-13T18:34:05.778Z,6.73
2022-11-13T18:36:34.792Z,6.78
2022-11-13T18:39:04.859Z,6.73
2022-11-13T18:41:32.743Z,6.65
2022-11-13T18:43:59.526Z,6.63
2022-11-13T18:46:26.310Z,6.63
2022-11-13T18:48:54.833Z,6.60
2022-11-13T18:51:24.151Z,6.54
2022-11-13T18:53:52.178Z,6.51
2022-11-13T18:56:24.715Z,6.54
2022-11-13T18:58:53.418Z,6.62
2022-11-13T19:01:23.523Z,6.67
2022-11-13T19:04:16.292Z,6.83
2022-11-13T19:06:39.346Z,6.76
2022-11-13T19:09:12.592Z,6.76
2022-11-13T19:11:39.959Z,6.88
2022-11-13T19:14:07.660Z,6.86
2022-11-13T19:16:37.671Z,8.04
2022-11-13T19:19:24.559Z,7.65
2022-11-13T19:21:51.312Z,7.35
2022-11-13T19:24:18.044Z,7.15
2022-11-13T19:26:46.058Z,7.18
2022-11-13T19:29:13.067Z,7.10
2022-11-13T19:31:39.973Z,6.95
2022-11-13T19:36:46.523Z,6.56
2022-11-13T19:41:46.586Z,6.22
2022-11-13T19:44:13.344Z,7.24
2022-11-13T19:46:40.026Z,7.01
2022-11-13T19:49:07.252Z,6.56
2022-11-13T19:51:33.890Z,6.43
2022-11-13T19:54:00.650Z,6.68
2022-11-13T19:56:31.086Z,6.85
2022-11-13T19:58:57.804Z,6.85
2022-11-13T20:01:27.082Z,6.81
2022-11-13T20:03:58.855Z,6.59
2022-11-13T20:06:27.111Z,6.60
2022-11-13T20:08:54.039Z,6.45
2022-11-13T20:11:20.776Z,6.15
2022-11-13T20:13:47.660Z,5.97
2022-11-13T20:16:15.998Z,5.92
2022-11-13T20:18:44.122Z,5.91
2022-11-13T20:21:11.242Z,5.82
2022-11-13T20:23:38.717Z,5.93
2022-11-13T20:26:07.883Z,6.25
2022-11-13T20:28:34.900Z,6.32
2022-11-13T20:31:22.447Z,6.40
2022-11-13T20:33:51.004Z,6.26
2022-11-13T20:36:18.374Z,6.28
2022-11-13T20:38:50.693Z,6.58
2022-11-13T20:41:20.724Z,6.25
2022-11-13T20:43:51.107Z,6.14
2022-11-13T20:46:19.776Z,6.10
2022-11-13T20:48:46.768Z,6.21
2022-11-13T20:51:14.876Z,6.43
2022-11-13T20:53:42.261Z,6.44
2022-11-13T20:56:09.835Z,6.53
2022-11-13T20:58:37.363Z,6.54
2022-11-13T21:01:07.923Z,6.55
2022-11-13T21:03:40.002Z,6.46
2022-11-13T21:06:09.285Z,6.50
2022-11-13T21:08:36.176Z,6.54
2022-11-13T21:11:04.338Z,6.39
2022-11-13T21:13:31.001Z,6.45
2022-11-13T21:15:57.810Z,6.47
2022-11-13T21:18:25.471Z,6.48
2022-11-13T21:20:52.186Z,6.51
2022-11-13T21:23:18.833Z,6.47
2022-11-13T21:25:45.556Z,6.37
2022-11-13T21:28:12.260Z,6.35
2022-11-13T21:30:39.012Z,6.39
2022-11-13T21:33:05.659Z,6.37
2022-11-13T21:35:32.356Z,6.38
2022-11-13T21:37:59.076Z,6.35
2022-11-13T21:40:25.757Z,6.83
2022-11-13T21:42:52.479Z,7.30
2022-11-13T21:45:19.161Z,6.77
2022-11-13T21:47:45.801Z,6.65
2022-11-13T21:50:12.521Z,6.26
2022-11-13T21:52:39.143Z,5.98
2022-11-13T21:55:06.321Z,5.59
2022-11-13T21:57:32.970Z,5.90
2022-11-13T21:59:59.600Z,6.04
2022-11-13T22:02:26.310Z,5.96
2022-11-13T22:04:53.048Z,5.94
2022-11-13T22:07:19.735Z,5.96
2022-11-13T22:09:46.400Z,6.02
2022-11-13T22:12:13.120Z,5.92
2022-11-13T22:14:39.926Z,5.88
2022-11-13T22:17:06.572Z,5.79
2022-11-13T22:19:36.230Z,5.80
2022-11-13T22:22:03.267Z,5.93
2022-11-13T22:24:30.958Z,5.89
2022-11-13T22:26:57.699Z,5.95
2022-11-13T22:29:24.323Z,5.98
2022-11-13T22:31:50.967Z,5.98
2022-11-13T22:34:18.428Z,6.00
2022-11-13T22:36:45.060Z,5.93
2022-11-13T22:39:11.774Z,5.91
2022-11-13T22:41:38.489Z,5.96
2022-11-13T22:44:07.518Z,6.07
2022-11-13T22:46:35.748Z,6.16
2022-11-13T22:49:05.128Z,6.09
2022-11-13T22:51:41.251Z,6.14
2022-11-13T22:54:12.631Z,6.19
2022-11-13T22:56:40.931Z,6.31
2022-11-13T22:59:10.803Z,6.28
2022-11-13T23:01:38.840Z,6.20
2022-11-13T23:04:07.690Z,6.12
2022-11-13T23:06:35.959Z,5.92
2022-11-13T23:09:03.676Z,6.03
2022-11-13T23:11:33.314Z,6.04
2022-11-13T23:14:02.582Z,5.84
2022-11-13T23:16:30.742Z,5.68
2022-11-13T23:18:59.102Z,5.78
2022-11-13T23:21:26.847Z,5.58
2022-11-13T23:23:54.713Z,5.50
2022-11-13T23:26:22.521Z,5.63
2022-11-13T23:28:49.318Z,5.69
2022-11-13T23:31:16.305Z,5.79
2022-11-13T23:33:43.097Z,5.86
2022-11-13T23:36:11.818Z,5.84
2022-11-13T23:38:38.630Z,5.82
2022-11-13T23:41:05.358Z,5.77
2022-11-13T23:44:02.202Z,5.79
2022-11-13T23:46:18.533Z,5.81
2022-11-13T23:48:45.153Z,5.87
2022-11-13T23:51:11.723Z,5.90
2022-11-13T23:53:38.386Z,5.83
2022-11-13T23:56:05.364Z,5.80
2022-11-13T23:58:32.880Z,5.69
